Página principal
METAR-TAF:

METAR-TAF

Aeroportos :

Ilha de São Vicente, Cabo Verde

Aeroporto de São Pedro

latitude: 16-49-59N, longitude: 25-03-25W, altura: 20 m

Observação actual do tempo

O boletim foi feito há 38 minutos, às 16:00 UTC
Vento 23 kt de es-nordeste
Temperatura 26°C
Humidade 54%
Pressão 1015 hPa
Visibilidade 10 km ou mais
Poucas nuvensa uma altura de 2300 ft

METAR: GVSV 251600Z 07023KT 9999 FEW023 26/16 Q1015 NOSIG

Hora: 15:38 (16:38 UTC)

Previsão

O boletim foi feito há 5 horas e 38 minutos, às 11:00 UTC
Previsão válida de 25 às 12 UTC a 26 às 18 UTC
Vento 25 kt de es-nordeste
Visibilidade 10 km ou mais
Poucas nuvensa uma altura de 2200 ft
Temporariamente
de 25 às 12 UTC a 25 às 21 UTC
Vento 25 kt de es-nordeste com rajadas de 35 kt
Probabilidade 30% :
Temporariamente
de 26 às 02 UTC a 26 às 08 UTC
Vento 15 kt de es-nordeste
Nuvens dispersasa uma altura de 2000 ft

TAF: GVSV 251100Z 2512/2618 06025KT 9999 FEW022 TEMPO 2512/2521 06025G35KT PROB30 TEMPO 2602/2608 06015KT SCT020

Observações e previsões do tempo de mais de 4000 aeroportos (mensagens METAR e TAF).

As estações disponíveis são os pontos amarelos e vermelhos sobre o mapa.

Mova o rato sobre o mapa para ver o nome da estação.

Depois clique no ponto para visualizar as observações e previsões meteorológicas.

Para alterar o mapa : clique nos botões verdes com uma cruz preta para aumentar o zoom; no botão verde com uma pitada de zoom; ou nas setas verdes para mapas adjacentes.


METAR-TAF: